Overview Statistics Trail Chart Weather Telemetry Raw packets
 

This is the latest recevied weather packets stored in our database for station/object W7BTL. If no packets are shown the sender has not sent any weather packets the latest 10 day(s).

<< 29 30 31 32 33 34 35 >>
Time Temp. Humidity Pressure Rain* Wind** Luminosity Snow
1788458894 27.78° C 52% 1014.1 hPa 0 mm - 833 W/m² -
1788458594 27.22° C 53% 1014.1 hPa 0 mm - 904 W/m² -
1788458294 27.22° C 55% 1014.2 hPa 0 mm - 813 W/m² -
1788457993 26.67° C 53% 1014.1 hPa 0 mm - 529 W/m² -
1788457688 26.67° C 55% 1014.2 hPa 0 mm - 827 W/m² -
1788457383 26.11° C 57% 1014 hPa 0 mm - 826 W/m² -
1788457082 26.11° C 55% 1014.1 hPa 0 mm - 596 W/m² -
1788456778 26.11° C 56% 1014.4 hPa 0 mm - 794 W/m² -
1788456474 26.11° C 57% 1014.3 hPa 0 mm - 754 W/m² -
1788456169 25.56° C 59% 1014.2 hPa 0 mm - 764 W/m² -
1788455864 25.56° C 58% 1014.3 hPa 0 mm - 303 W/m² -
1788455559 26.11° C 55% 1014.3 hPa 0 mm - 736 W/m² -
1788455258 25.56° C 58% 1014.4 hPa 0 mm - 671 W/m² -
1788454954 24.44° C 61% 1014.2 hPa 0 mm - 689 W/m² -
1788454652 25° C 61% 1014.1 hPa 0 mm - 371 W/m² -
1788454347 25.56° C 59% 1014.1 hPa 0 mm - 368 W/m² -
1788454041 25.56° C 59% 1014.4 hPa 0 mm - 430 W/m² -
1788453737 25° C 59% 1014.2 hPa 0 mm - 572 W/m² -
1788453437 24.44° C 61% 1014.1 hPa 0 mm - 627 W/m² -
1788453133 23.89° C 63% 1014.3 hPa 0 mm - 202 W/m² -
1788452829 23.33° C 65% 1014.2 hPa 0 mm - 376 W/m² -
1788452525 23.89° C 64% 1014.2 hPa 0 mm - 267 W/m² -
1788452221 24.44° C 62% 1014.2 hPa 0 mm - 191 W/m² -
1788451915 25° C 61% 1014.3 hPa 0 mm - 204 W/m² -
1788451611 24.44° C 64% 1014.2 hPa 0 mm - 105 W/m² -

* Rain latest hour (hover to see other rain measurements)
** Current wind speed in m/s (hover to see current wind gust speed)